Time;durP1;ratioP1;P1;durP2;ratioP2;P2;SDS_P1;SDS_P2;PMS_P1;PMS_P2;Temp;Humidity;BMP_temperature;BMP_pressure;BME280_temperature;BME280_humidity;BME280_pressure;Samples;Min_cycle;Max_cycle;Signal;HPM_P1;HPM_P2
2021/04/25 00:02:18;;;;;;;4.35;2.38;;;18.50;99.80;;;;;;4908643;29;20052;-67
2021/04/25 00:04:45;;;;;;;5.85;3.15;;;18.50;99.50;;;;;;4895101;29;20040;-67
2021/04/25 00:07:13;;;;;;;4.68;2.25;;;18.70;99.50;;;;;;4911264;29;20052;-67
2021/04/25 00:09:40;;;;;;;6.78;2.13;;;18.80;99.90;;;;;;4915090;29;20123;-67
2021/04/25 00:12:08;;;;;;;5.45;2.45;;;18.90;99.10;;;;;;4910698;29;20067;-68
2021/04/25 00:14:35;;;;;;;5.68;2.28;;;19.00;99.20;;;;;;4902133;29;20144;-68
2021/04/25 00:17:03;;;;;;;3.95;1.90;;;19.10;98.90;;;;;;4896456;29;20040;-67
2021/04/25 00:19:30;;;;;;;5.40;2.20;;;19.10;99.90;;;;;;4899020;29;20032;-67
2021/04/25 00:21:57;;;;;;;5.65;1.95;;;19.60;99.00;;;;;;4906715;29;20036;-68
2021/04/25 00:24:25;;;;;;;5.70;2.20;;;19.30;99.50;;;;;;4913448;29;20051;-68
2021/04/25 00:26:52;;;;;;;6.97;2.15;;;19.40;99.40;;;;;;4909057;29;20040;-68
2021/04/25 00:29:20;;;;;;;5.32;2.00;;;19.40;99.90;;;;;;4913643;29;20044;-68
2021/04/25 00:31:47;;;;;;;11.63;2.33;;;19.90;99.40;;;;;;4920252;29;20044;-68
2021/04/25 00:34:14;;;;;;;5.40;2.10;;;20.20;99.20;;;;;;4904017;29;20156;-68
2021/04/25 00:36:43;;;;;;;7.75;2.15;;;20.40;98.80;;;;;;4895243;29;20032;-67
2021/04/25 00:39:10;;;;;;;5.90;2.20;;;20.40;99.30;;;;;;4913149;29;20040;-67
2021/04/25 00:41:37;;;;;;;6.25;2.05;;;20.20;98.80;;;;;;4922099;29;20523;-67
2021/04/25 00:44:07;;;;;;;5.40;1.95;;;19.90;99.90;;;;;;4895283;29;20084;-68
2021/04/25 00:46:34;;;;;;;4.47;1.60;;;19.90;99.90;;;;;;4916382;29;20063;-68
2021/04/25 00:49:01;;;;;;;5.95;1.95;;;20.00;99.90;;;;;;4913392;29;20040;-67
2021/04/25 00:51:29;;;;;;;7.32;2.20;;;20.10;99.90;;;;;;4919241;29;20047;-68
2021/04/25 00:53:57;;;;;;;3.97;1.50;;;20.40;99.90;;;;;;4918703;29;20506;-67
2021/04/25 00:56:25;;;;;;;5.63;1.60;;;20.50;99.90;;;;;;4920176;29;20040;-67
2021/04/25 00:58:52;;;;;;;7.25;1.70;;;20.30;99.90;;;;;;4917778;29;20497;-67
2021/04/25 01:01:19;;;;;;;5.38;1.88;;;20.40;99.90;;;;;;4920123;29;20035;-67
2021/04/25 01:03:47;;;;;;;4.40;1.40;;;20.70;99.90;;;;;;4901437;29;20103;-68
2021/04/25 01:06:14;;;;;;;5.47;1.35;;;20.80;99.90;;;;;;4919953;29;20056;-68
2021/04/25 01:08:41;;;;;;;5.28;1.38;;;20.90;99.90;;;;;;4916791;29;20184;-67
2021/04/25 01:11:08;;;;;;;8.18;1.92;;;20.90;99.90;;;;;;4902651;29;20095;-67
2021/04/25 01:13:37;;;;;;;6.32;1.67;;;21.20;99.90;;;;;;4918096;29;20043;-67
2021/04/25 01:16:04;;;;;;;5.45;1.60;;;21.30;99.90;;;;;;4917700;29;20047;-67
2021/04/25 01:18:31;;;;;;;6.88;1.90;;;21.50;99.90;;;;;;4917681;29;20044;-68
2021/04/25 01:21:06;;;;;;;6.25;1.63;;;21.60;99.90;;;;;;4919858;29;20087;-67
2021/04/25 01:23:33;;;;;;;4.35;1.52;;;22.20;99.60;;;;;;4918627;29;20123;-67
2021/04/25 01:26:01;;;;;;;4.07;1.25;;;22.00;99.10;;;;;;4920945;29;20040;-68
2021/04/25 01:28:28;;;;;;;3.97;1.17;;;22.00;99.90;;;;;;4917416;29;20139;-68
2021/04/25 01:30:56;;;;;;;3.03;1.13;;;21.80;99.90;;;;;;4920001;29;20042;-68
2021/04/25 01:33:28;;;;;;;6.13;1.50;;;21.30;99.60;;;;;;4914422;29;20118;-68
2021/04/25 01:35:55;;;;;;;8.27;1.08;;;21.50;99.90;;;;;;4902606;29;20060;-68
2021/04/25 01:38:23;;;;;;;4.85;1.17;;;21.70;99.50;;;;;;4917301;29;20096;-68
2021/04/25 01:40:50;;;;;;;4.63;1.30;;;21.40;99.90;;;;;;4918880;29;20371;-67
2021/04/25 01:43:18;;;;;;;5.10;1.33;;;21.10;99.90;;;;;;4917068;29;20405;-68
2021/04/25 01:45:46;;;;;;;3.80;1.50;;;21.20;99.90;;;;;;4915934;29;20131;-68
2021/04/25 01:48:13;;;;;;;4.80;1.67;;;21.70;99.90;;;;;;4900003;29;20040;-68
2021/04/25 01:50:40;;;;;;;4.63;1.60;;;21.40;99.90;;;;;;4932464;29;20456;-68
2021/04/25 01:53:10;;;;;;;4.35;1.27;;;21.10;99.90;;;;;;4924664;29;20040;-68
2021/04/25 01:55:38;;;;;;;5.32;1.08;;;20.50;99.90;;;;;;4899610;29;20132;-67
2021/04/25 01:58:08;;;;;;;5.78;1.52;;;20.50;99.90;;;;;;4892944;29;20052;-67
2021/04/25 02:00:44;;;;;;;6.00;1.13;;;20.30;99.90;;;;;;4916816;29;20047;-67
2021/04/25 02:03:14;;;;;;;5.97;1.30;;;20.50;99.90;;;;;;4899868;29;20067;-67
2021/04/25 02:05:43;;;;;;;6.50;1.33;;;21.30;99.90;;;;;;4901171;29;20139;-67
2021/04/25 02:08:12;;;;;;;3.53;0.85;;;21.80;98.90;;;;;;4914728;29;20046;-66
2021/04/25 02:10:40;;;;;;;4.30;0.90;;;22.50;98.60;;;;;;4913961;29;20508;-66
2021/04/25 02:13:08;;;;;;;3.15;0.90;;;22.20;98.20;;;;;;4897830;29;20375;-66
2021/04/25 02:15:36;;;;;;;6.15;0.95;;;21.90;97.20;;;;;;4913501;29;20469;-66
2021/04/25 02:18:03;;;;;;;6.38;1.10;;;22.40;97.60;;;;;;4915621;29;20044;-67
2021/04/25 02:20:31;;;;;;;3.95;1.00;;;22.70;97.00;;;;;;4917631;29;20122;-67
2021/04/25 02:22:59;;;;;;;4.95;0.77;;;23.10;96.30;;;;;;4914417;29;20043;-68
2021/04/25 02:25:26;;;;;;;6.43;1.40;;;23.00;96.70;;;;;;4915307;29;20040;-68
2021/04/25 02:27:53;;;;;;;4.13;1.10;;;23.10;96.70;;;;;;4915271;29;20048;-67
2021/04/25 02:30:26;;;;;;;1.90;0.98;;;22.50;97.30;;;;;;4917122;29;20040;-66
2021/04/25 02:32:54;;;;;;;2.85;0.95;;;22.50;97.90;;;;;;4917272;29;20036;-66
2021/04/25 02:35:24;;;;;;;4.18;0.88;;;22.90;97.20;;;;;;4919026;29;20494;-66
2021/04/25 02:37:53;;;;;;;7.28;1.75;;;22.70;95.30;;;;;;4916110;29;20127;-66
2021/04/25 02:40:23;;;;;;;3.88;1.13;;;22.70;96.00;;;;;;4916297;29;20036;-66
2021/04/25 02:42:50;;;;;;;4.25;1.27;;;22.90;96.90;;;;;;4915841;29;20032;-66
2021/04/25 02:45:19;;;;;;;2.53;0.93;;;22.80;97.70;;;;;;4917103;29;20036;-67
2021/04/25 02:47:55;;;;;;;4.30;1.02;;;22.80;97.10;;;;;;4905644;29;20048;-67
2021/04/25 02:50:26;;;;;;;3.60;1.17;;;23.50;97.70;;;;;;4917720;29;20413;-65
2021/04/25 02:52:54;;;;;;;5.75;1.13;;;23.80;97.10;;;;;;4914828;29;20040;-67
2021/04/25 02:55:22;;;;;;;5.20;1.17;;;23.80;96.00;;;;;;4920108;29;20502;-67
2021/04/25 02:57:49;;;;;;;3.47;1.40;;;24.20;96.40;;;;;;4915150;29;20047;-67
2021/04/25 03:00:20;;;;;;;5.40;1.00;;;23.70;95.90;;;;;;4914713;29;20036;-66
2021/04/25 03:02:48;;;;;;;5.18;1.02;;;23.90;97.10;;;;;;4909482;29;20131;-67
2021/04/25 03:05:16;;;;;;;3.65;1.10;;;23.80;97.50;;;;;;4913832;29;20048;-67
2021/04/25 03:07:45;;;;;;;4.78;1.13;;;23.40;98.30;;;;;;4914586;29;20092;-67
2021/04/25 03:10:13;;;;;;;2.15;1.08;;;22.80;98.10;;;;;;4915210;29;20123;-68
2021/04/25 03:12:41;;;;;;;5.68;1.42;;;22.00;98.90;;;;;;4897694;29;20075;-68
2021/04/25 03:15:10;;;;;;;3.75;0.90;;;21.50;99.90;;;;;;4914500;29;20100;-68
2021/04/25 03:17:38;;;;;;;7.03;1.77;;;21.30;99.90;;;;;;4894163;29;20040;-68
2021/04/25 03:20:10;;;;;;;49.53;14.25;;;21.00;99.90;;;;;;4914715;29;20044;-68
2021/04/25 03:22:38;;;;;;;4.80;1.20;;;20.70;99.90;;;;;;4913177;29;20043;-69
2021/04/25 03:25:10;;;;;;;4.13;1.17;;;20.30;99.90;;;;;;4895623;29;20036;-68
2021/04/25 03:27:38;;;;;;;5.18;1.10;;;20.00;99.90;;;;;;4907429;29;20100;-68
2021/04/25 03:30:08;;;;;;;14.55;2.53;;;19.90;99.90;;;;;;4916452;29;20170;-68
2021/04/25 03:32:36;;;;;;;13.00;2.38;;;19.80;99.90;;;;;;4912835;29;20051;-68
2021/04/25 03:35:08;;;;;;;5.15;1.17;;;19.70;99.90;;;;;;4912839;29;20036;-67
2021/04/25 03:37:36;;;;;;;8.73;2.20;;;19.70;99.90;;;;;;4909222;29;20052;-68
2021/04/25 03:40:06;;;;;;;4.15;1.63;;;19.60;99.90;;;;;;4908612;29;20446;-67
2021/04/25 03:42:33;;;;;;;12.63;2.55;;;19.60;99.90;;;;;;4918623;29;20043;-67
2021/04/25 03:45:01;;;;;;;4.85;1.42;;;19.60;99.90;;;;;;4913712;29;20040;-67
2021/04/25 03:47:28;;;;;;;3.70;1.13;;;19.70;99.90;;;;;;4915188;29;20038;-68
2021/04/25 03:49:55;;;;;;;5.32;1.13;;;19.70;99.90;;;;;;4925219;29;20036;-67
2021/04/25 03:52:23;;;;;;;6.38;1.63;;;19.60;99.90;;;;;;4916964;29;20040;-67
2021/04/25 03:54:50;;;;;;;4.63;1.13;;;19.60;99.90;;;;;;4916400;29;20054;-68
2021/04/25 03:57:17;;;;;;;5.50;1.17;;;19.60;99.90;;;;;;4925001;29;20043;-67
2021/04/25 03:59:44;;;;;;;3.92;0.73;;;19.50;99.90;;;;;;4924430;29;20055;-68
2021/04/25 04:02:12;;;;;;;4.15;1.23;;;19.50;99.90;;;;;;4918915;29;20123;-67
2021/04/25 04:04:39;;;;;;;4.32;1.00;;;19.50;99.90;;;;;;4912741;29;20040;-68
2021/04/25 04:07:07;;;;;;;7.32;1.67;;;19.50;99.90;;;;;;4892929;29;20135;-68
2021/04/25 04:09:34;;;;;;;3.47;0.70;;;19.40;99.90;;;;;;4912967;29;20041;-68
2021/04/25 04:12:01;;;;;;;4.07;0.98;;;19.40;99.90;;;;;;4913568;29;20183;-68
2021/04/25 04:14:28;;;;;;;6.38;0.93;;;19.40;99.90;;;;;;4895607;29;20036;-69
2021/04/25 04:16:56;;;;;;;5.55;1.00;;;19.40;99.90;;;;;;4910377;29;20036;-69
2021/04/25 04:19:23;;;;;;;5.55;0.90;;;19.30;99.90;;;;;;4910331;29;20036;-68
2021/04/25 04:21:50;;;;;;;5.85;1.05;;;19.30;99.90;;;;;;4911126;29;20087;-68
2021/04/25 04:24:18;;;;;;;4.90;1.15;;;19.20;99.90;;;;;;4912016;29;20043;-68
2021/04/25 04:26:45;;;;;;;4.68;1.13;;;19.30;99.90;;;;;;4897922;29;20036;-69
2021/04/25 04:29:13;;;;;;;6.43;0.95;;;19.50;99.90;;;;;;4914208;29;21259;-67
2021/04/25 04:31:40;;;;;;;5.00;1.20;;;19.60;99.90;;;;;;4914943;29;20156;-68
2021/04/25 04:34:07;;;;;;;4.18;0.90;;;19.80;99.90;;;;;;4913410;29;20104;-68
2021/04/25 04:36:35;;;;;;;3.05;0.98;;;19.80;99.90;;;;;;4914797;29;20043;-68
2021/04/25 04:39:03;;;;;;;6.22;1.58;;;19.70;99.90;;;;;;4898286;29;20032;-68
2021/04/25 04:41:30;;;;;;;6.30;1.20;;;19.80;99.90;;;;;;4914269;29;20036;-68
2021/04/25 04:43:59;;;;;;;3.28;0.75;;;19.50;99.90;;;;;;4915336;29;20445;-68
2021/04/25 04:46:27;;;;;;;2.85;1.02;;;19.40;99.90;;;;;;4898106;29;20036;-68
2021/04/25 04:48:54;;;;;;;6.38;1.25;;;19.40;99.90;;;;;;4910753;29;20059;-67
2021/04/25 04:51:21;;;;;;;4.70;1.05;;;19.40;99.90;;;;;;4913999;29;20541;-67
2021/04/25 04:53:48;;;;;;;3.30;1.02;;;19.60;99.90;;;;;;4909463;29;20039;-68
2021/04/25 04:56:16;;;;;;;3.00;0.90;;;19.60;99.90;;;;;;4919160;29;20047;-68
2021/04/25 04:58:43;;;;;;;2.83;0.75;;;19.70;99.90;;;;;;4913723;29;20661;-69
2021/04/25 05:01:10;;;;;;;3.90;0.88;;;19.70;99.90;;;;;;4902210;29;20037;-68
2021/04/25 05:03:38;;;;;;;3.55;0.63;;;19.40;99.90;;;;;;4917901;29;20471;-67
2021/04/25 05:06:05;;;;;;;3.70;1.08;;;19.40;99.90;;;;;;4918626;29;20059;-68
2021/04/25 05:08:32;;;;;;;2.45;0.73;;;19.40;99.90;;;;;;4916644;29;20051;-67
2021/04/25 05:10:59;;;;;;;6.43;1.35;;;19.50;99.90;;;;;;4902073;29;20509;-68
2021/04/25 05:13:27;;;;;;;4.65;0.75;;;19.50;99.90;;;;;;4897031;29;20036;-67
2021/04/25 05:15:54;;;;;;;3.58;0.80;;;19.40;99.90;;;;;;4918974;29;20040;-67
2021/04/25 05:18:21;;;;;;;6.47;0.93;;;19.20;99.90;;;;;;4921144;29;20496;-68
2021/04/25 05:20:49;;;;;;;5.10;0.70;;;19.20;99.90;;;;;;4926230;29;20047;-67
2021/04/25 05:23:16;;;;;;;5.55;1.17;;;19.20;99.90;;;;;;4916726;29;20144;-69
2021/04/25 05:25:44;;;;;;;5.28;0.63;;;19.10;99.90;;;;;;4917339;29;20052;-67
2021/04/25 05:28:11;;;;;;;4.18;1.00;;;19.00;99.90;;;;;;4915537;29;20048;-68
2021/04/25 05:30:38;;;;;;;3.47;0.70;;;18.90;99.90;;;;;;4917272;29;20039;-67
2021/04/25 05:33:06;;;;;;;6.25;0.82;;;18.90;99.90;;;;;;4918612;29;20032;-67
2021/04/25 05:35:33;;;;;;;5.35;0.90;;;18.80;99.90;;;;;;4930946;29;20032;-68
2021/04/25 05:38:00;;;;;;;5.13;0.70;;;18.90;99.90;;;;;;4915148;29;20072;-68
2021/04/25 05:40:27;;;;;;;7.65;0.93;;;19.00;99.90;;;;;;4915688;29;20084;-68
2021/04/25 05:42:55;;;;;;;4.82;1.08;;;18.80;99.90;;;;;;4913816;29;20087;-68
2021/04/25 05:45:22;;;;;;;3.72;0.90;;;18.50;99.90;;;;;;4914089;29;20055;-68
2021/04/25 05:47:55;;;;;;;6.07;0.77;;;18.40;99.90;;;;;;4907286;29;20100;-67
2021/04/25 05:50:24;;;;;;;3.65;0.80;;;18.30;99.90;;;;;;4914245;29;20548;-68
2021/04/25 05:52:51;;;;;;;3.25;0.80;;;18.30;99.90;;;;;;4897400;29;20040;-68
2021/04/25 05:55:19;;;;;;;7.15;1.15;;;18.30;99.90;;;;;;4896294;29;20132;-68
2021/04/25 05:57:46;;;;;;;5.75;1.02;;;18.30;99.90;;;;;;4913269;29;20040;-68
2021/04/25 06:00:23;;;;;;;6.43;0.90;;;18.20;99.90;;;;;;4914381;29;20063;-67
2021/04/25 06:02:50;;;;;;;3.38;0.70;;;18.20;99.90;;;;;;4915336;29;20047;-67
2021/04/25 06:05:18;;;;;;;4.30;1.13;;;18.20;99.90;;;;;;4900486;29;20055;-67
2021/04/25 06:07:45;;;;;;;3.97;0.93;;;18.20;99.90;;;;;;4916000;29;20115;-69
2021/04/25 06:10:14;;;;;;;8.10;1.95;;;18.30;99.90;;;;;;4897893;29;20040;-68
2021/04/25 06:12:41;;;;;;;5.90;0.93;;;18.30;99.90;;;;;;4913894;29;20036;-69
2021/04/25 06:15:09;;;;;;;3.45;0.88;;;18.40;99.90;;;;;;4915739;29;20031;-68
2021/04/25 06:17:37;;;;;;;4.03;0.80;;;18.40;99.90;;;;;;4908724;29;20041;-68
2021/04/25 06:20:06;;;;;;;7.85;1.42;;;18.20;99.90;;;;;;4909071;29;20546;-68
2021/04/25 06:22:35;;;;;;;5.95;0.98;;;18.20;99.90;;;;;;4895885;29;20067;-68
2021/04/25 06:25:02;;;;;;;5.75;1.05;;;18.20;99.90;;;;;;4895496;29;20044;-68
2021/04/25 06:27:30;;;;;;;4.45;1.23;;;18.20;99.90;;;;;;4912110;29;20070;-66
2021/04/25 06:29:57;;;;;;;4.70;0.90;;;18.10;99.90;;;;;;4914952;29;20036;-66
2021/04/25 06:32:24;;;;;;;5.13;0.90;;;18.00;99.90;;;;;;4899371;29;20051;-66
2021/04/25 06:34:52;;;;;;;6.32;1.25;;;18.00;99.90;;;;;;4913515;29;20047;-66
2021/04/25 06:37:20;;;;;;;6.40;0.68;;;18.00;99.90;;;;;;4914700;29;20052;-66
2021/04/25 06:39:48;;;;;;;5.57;1.25;;;18.00;99.90;;;;;;4914148;29;20166;-66
2021/04/25 06:42:18;;;;;;;5.13;1.10;;;18.00;99.90;;;;;;4916027;29;20036;-67
2021/04/25 06:44:45;;;;;;;5.55;0.77;;;17.90;99.90;;;;;;4915181;29;20032;-67
2021/04/25 06:47:15;;;;;;;2.42;0.70;;;17.80;99.90;;;;;;4915453;29;20051;-67
2021/04/25 06:49:45;;;;;;;3.50;0.90;;;17.90;99.90;;;;;;4914596;29;20055;-67
2021/04/25 06:52:13;;;;;;;4.43;0.70;;;17.80;99.90;;;;;;4915123;29;20422;-67
2021/04/25 06:54:40;;;;;;;3.65;0.93;;;17.70;99.90;;;;;;4916031;29;20039;-67
2021/04/25 06:57:08;;;;;;;4.45;0.80;;;17.70;99.90;;;;;;4916055;29;20044;-67
2021/04/25 06:59:37;;;;;;;5.30;1.40;;;17.80;99.90;;;;;;4915518;29;20146;-67
2021/04/25 07:02:07;;;;;;;5.25;0.63;;;17.80;99.90;;;;;;4915444;29;20401;-67
2021/04/25 07:04:34;;;;;;;4.25;1.30;;;17.70;99.90;;;;;;4914751;29;20040;-66
2021/04/25 07:07:13;;;;;;;6.10;1.00;;;17.70;99.90;;;;;;4915967;29;20067;-66
2021/04/25 07:09:41;;;;;;;6.10;1.05;;;17.60;99.90;;;;;;4913774;29;20060;-66
2021/04/25 07:12:09;;;;;;;9.38;1.10;;;17.60;99.90;;;;;;4914954;29;20105;-67
2021/04/25 07:14:36;;;;;;;6.35;1.15;;;17.50;99.90;;;;;;4915780;29;20457;-66
2021/04/25 07:17:04;;;;;;;6.18;0.88;;;17.50;99.90;;;;;;4898786;29;20086;-67
2021/04/25 07:19:31;;;;;;;5.65;0.90;;;17.50;99.90;;;;;;4914148;29;20040;-66
2021/04/25 07:21:59;;;;;;;6.85;1.27;;;17.50;99.90;;;;;;4899152;29;20059;-67
2021/04/25 07:24:27;;;;;;;5.00;0.80;;;17.40;99.90;;;;;;4903710;29;20032;-67
2021/04/25 07:26:54;;;;;;;4.22;1.27;;;17.40;99.90;;;;;;4915974;29;20051;-67
2021/04/25 07:29:22;;;;;;;5.80;1.15;;;17.50;99.90;;;;;;4910480;29;20040;-67
2021/04/25 07:31:50;;;;;;;6.65;1.20;;;17.40;99.90;;;;;;4908909;29;20044;-67
2021/04/25 07:34:18;;;;;;;6.22;1.30;;;17.40;99.90;;;;;;4911532;29;20036;-67
2021/04/25 07:36:45;;;;;;;4.00;0.90;;;17.40;99.90;;;;;;4911291;29;20040;-67
2021/04/25 07:39:12;;;;;;;8.38;1.58;;;17.30;99.90;;;;;;4912153;29;20036;-67
2021/04/25 07:41:40;;;;;;;9.85;1.55;;;17.30;99.90;;;;;;4914951;29;20039;-67
2021/04/25 07:44:07;;;;;;;5.10;1.30;;;17.20;99.90;;;;;;4913918;29;20068;-67
2021/04/25 07:46:35;;;;;;;4.45;1.88;;;17.20;99.90;;;;;;4916275;29;20527;-67
2021/04/25 07:49:02;;;;;;;8.50;2.10;;;17.20;99.90;;;;;;4910008;29;20083;-67
2021/04/25 07:51:29;;;;;;;7.68;2.15;;;17.20;99.90;;;;;;4913594;29;20039;-68
2021/04/25 07:53:59;;;;;;;7.65;1.92;;;17.10;99.90;;;;;;4909915;29;20382;-67
2021/04/25 07:56:27;;;;;;;6.95;1.70;;;17.10;99.90;;;;;;4895686;29;20044;-68
2021/04/25 07:58:54;;;;;;;8.82;2.60;;;17.10;99.90;;;;;;4913560;29;20409;-67
2021/04/25 08:01:22;;;;;;;7.05;2.00;;;17.00;99.90;;;;;;4914556;29;20482;-68
2021/04/25 08:03:49;;;;;;;9.50;2.60;;;17.00;99.90;;;;;;4912934;29;20657;-67
2021/04/25 08:06:16;;;;;;;14.02;7.10;;;17.00;99.90;;;;;;4913041;29;20055;-68
2021/04/25 08:08:43;;;;;;;10.95;3.00;;;16.90;99.90;;;;;;4916655;29;20098;-68
2021/04/25 08:11:11;;;;;;;6.65;2.33;;;17.10;99.90;;;;;;4918313;29;20068;-68
2021/04/25 08:13:38;;;;;;;11.82;2.45;;;17.00;99.90;;;;;;4917368;29;20055;-67
2021/04/25 08:16:06;;;;;;;10.48;3.20;;;16.90;99.90;;;;;;4914379;29;20043;-68
2021/04/25 08:18:33;;;;;;;6.40;2.30;;;16.90;99.90;;;;;;4916576;29;20111;-68
2021/04/25 08:21:00;;;;;;;10.98;3.58;;;16.80;99.90;;;;;;4918885;29;20043;-67
2021/04/25 08:23:28;;;;;;;4.47;1.88;;;16.80;99.90;;;;;;4900358;29;20071;-67
2021/04/25 08:25:55;;;;;;;9.60;3.00;;;16.80;99.90;;;;;;4915312;29;20495;-68
2021/04/25 08:28:24;;;;;;;8.10;3.53;;;16.80;99.90;;;;;;4915636;29;20094;-67
2021/04/25 08:30:52;;;;;;;8.98;2.92;;;16.90;99.90;;;;;;4918544;29;20043;-68
2021/04/25 08:33:23;;;;;;;10.15;2.63;;;17.00;99.90;;;;;;4916499;29;20044;-67
2021/04/25 08:35:50;;;;;;;7.50;2.83;;;16.90;99.90;;;;;;4918806;29;20039;-67
2021/04/25 08:38:19;;;;;;;8.52;2.88;;;16.70;99.90;;;;;;4917101;29;20032;-67
2021/04/25 08:40:47;;;;;;;7.93;3.10;;;16.70;99.90;;;;;;4917285;29;20071;-66
2021/04/25 08:43:15;;;;;;;7.00;2.67;;;16.60;99.90;;;;;;4915209;29;20433;-66
2021/04/25 08:45:47;;;;;;;9.25;2.67;;;16.60;99.90;;;;;;4918325;29;20043;-67
2021/04/25 08:48:15;;;;;;;5.57;3.17;;;16.60;99.90;;;;;;4916919;29;20485;-66
2021/04/25 08:50:43;;;;;;;9.00;3.92;;;16.60;99.90;;;;;;4916528;29;20044;-67
2021/04/25 08:53:11;;;;;;;10.13;4.40;;;16.60;99.90;;;;;;4916768;29;20040;-66
2021/04/25 08:55:39;;;;;;;15.50;7.65;;;16.60;99.90;;;;;;4918607;29;20040;-67
2021/04/25 08:58:06;;;;;;;12.40;6.55;;;16.60;99.90;;;;;;4917111;29;20067;-66
2021/04/25 09:00:34;;;;;;;17.92;6.47;;;16.60;99.90;;;;;;4901784;29;20047;-67
2021/04/25 09:03:02;;;;;;;9.40;4.93;;;16.50;99.90;;;;;;4916630;29;20063;-67
2021/04/25 09:05:29;;;;;;;13.93;4.65;;;16.50;99.90;;;;;;4917678;29;20409;-67
2021/04/25 09:07:59;;;;;;;11.45;5.80;;;16.40;99.90;;;;;;4912836;29;20131;-67
2021/04/25 09:10:38;;;;;;;12.93;7.43;;;16.40;99.90;;;;;;4918354;29;20032;-67
2021/04/25 09:13:25;;;;;;;10.48;6.25;;;16.40;99.90;;;;;;4899856;29;20099;-68
2021/04/25 09:15:54;;;;;;;13.88;7.05;;;16.30;99.90;;;;;;4914805;29;20040;-67
2021/04/25 09:18:37;;;;;;;12.60;7.53;;;16.40;99.90;;;;;;4916609;29;20536;-67
2021/04/25 09:21:11;;;;;;;12.05;5.63;;;16.30;99.90;;;;;;4913024;29;20035;-68
2021/04/25 09:23:40;;;;;;;9.35;4.50;;;16.30;99.90;;;;;;4899061;29;20044;-67
2021/04/25 09:26:10;;;;;;;10.43;5.28;;;16.30;99.90;;;;;;4901028;29;20063;-67
2021/04/25 09:28:41;;;;;;;10.98;4.57;;;16.20;99.90;;;;;;4899552;29;20044;-67
2021/04/25 09:31:16;;;;;;;10.93;5.00;;;16.20;99.90;;;;;;4918618;29;20043;-68
2021/04/25 09:33:57;;;;;;;7.75;3.70;;;16.20;99.90;;;;;;4903755;29;20048;-67
2021/04/25 09:36:28;;;;;;;9.77;3.30;;;16.10;99.90;;;;;;4922819;29;20251;-67
2021/04/25 09:39:08;;;;;;;7.10;3.22;;;16.20;99.90;;;;;;4921288;29;20040;-68
2021/04/25 09:41:36;;;;;;;12.65;3.88;;;16.20;99.90;;;;;;4905744;29;20037;-67
2021/04/25 09:44:04;;;;;;;9.93;3.75;;;16.20;99.90;;;;;;4916281;29;20473;-67
2021/04/25 09:46:53;;;;;;;7.10;3.60;;;16.20;99.90;;;;;;4911191;29;20095;-67
2021/04/25 09:49:40;;;;;;;13.13;4.50;;;16.10;99.90;;;;;;4916615;29;20048;-68
2021/04/25 09:52:09;;;;;;;10.27;3.25;;;16.10;99.90;;;;;;4895806;29;20037;-67
2021/04/25 09:54:36;;;;;;;7.00;4.38;;;16.10;99.90;;;;;;4917830;29;20402;-68
2021/04/25 09:57:04;;;;;;;9.32;3.55;;;16.00;99.90;;;;;;4915754;29;20044;-67
2021/04/25 09:59:31;;;;;;;11.93;4.47;;;16.00;99.90;;;;;;4916013;29;20055;-68
2021/04/25 10:02:06;;;;;;;11.07;3.67;;;16.00;99.90;;;;;;4898676;29;20187;-67
2021/04/25 10:04:38;;;;;;;14.57;4.15;;;15.90;99.90;;;;;;4917423;29;20032;-67
2021/04/25 10:07:07;;;;;;;8.75;3.50;;;15.90;99.90;;;;;;4915678;29;20052;-67
2021/04/25 10:09:35;;;;;;;9.68;3.72;;;15.80;99.90;;;;;;4915814;29;20409;-67
2021/04/25 10:12:03;;;;;;;7.53;3.53;;;15.80;99.90;;;;;;4914886;29;20136;-67
2021/04/25 10:14:32;;;;;;;9.40;3.67;;;15.80;99.90;;;;;;4911368;29;20095;-67
2021/04/25 10:17:01;;;;;;;13.18;4.10;;;15.80;99.90;;;;;;4908916;29;20051;-67
2021/04/25 10:19:29;;;;;;;11.10;3.85;;;15.80;99.90;;;;;;4916020;29;20032;-68
2021/04/25 10:21:57;;;;;;;9.60;3.28;;;15.80;99.90;;;;;;4914965;29;20051;-67
2021/04/25 10:24:24;;;;;;;7.72;3.35;;;15.80;99.90;;;;;;4899409;29;20127;-67
2021/04/25 10:26:58;;;;;;;8.07;2.88;;;15.70;99.90;;;;;;4909032;29;20040;-68
2021/04/25 10:29:33;;;;;;;6.93;3.22;;;15.70;99.90;;;;;;4916110;29;20048;-68
2021/04/25 10:32:04;;;;;;;8.13;3.15;;;15.70;99.90;;;;;;4895832;29;20115;-67
2021/04/25 10:34:32;;;;;;;7.10;3.20;;;15.70;99.90;;;;;;4914860;29;20068;-68
2021/04/25 10:37:02;;;;;;;7.93;2.83;;;15.60;99.90;;;;;;4912281;29;20036;-68
2021/04/25 10:39:55;;;;;;;9.55;4.30;;;15.60;99.90;;;;;;4898804;29;20131;-68
2021/04/25 10:42:29;;;;;;;10.05;3.67;;;15.60;99.90;;;;;;4913347;29;20039;-68
2021/04/25 10:47:36;;;;;;;8.75;2.83;;;15.60;99.90;;;;;;4915579;29;20115;-67
2021/04/25 10:50:16;;;;;;;7.25;3.10;;;15.50;99.90;;;;;;4899390;29;20112;-67
2021/04/25 10:52:50;;;;;;;5.90;2.72;;;15.50;99.90;;;;;;4914287;29;20044;-67
2021/04/25 10:55:19;;;;;;;10.15;3.35;;;15.50;99.90;;;;;;4916682;29;20064;-67
2021/04/25 11:00:31;;;;;;;11.82;3.33;;;15.50;99.90;;;;;;4915626;29;20039;-67
2021/04/25 11:03:01;;;;;;;11.15;3.45;;;15.40;99.90;;;;;;4913147;29;20385;-67
2021/04/25 11:08:06;;;;;;;8.75;3.75;;;15.40;99.90;;;;;;4914241;29;20036;-67
2021/04/25 11:10:52;;;;;;;9.35;3.55;;;15.40;99.90;;;;;;4916059;29;20044;-67
2021/04/25 11:13:35;;;;;;;10.88;3.25;;;15.40;99.90;;;;;;4909744;29;20075;-68
2021/04/25 11:16:05;;;;;;;11.73;4.55;;;15.30;99.90;;;;;;4915454;29;20341;-68
2021/04/25 11:18:54;;;;;;;6.80;3.20;;;15.30;99.90;;;;;;4913770;29;20039;-69
2021/04/25 11:23:55;;;;;;;15.40;5.67;;;15.30;99.90;;;;;;4912720;29;20051;-68
2021/04/25 11:26:39;;;;;;;15.50;5.25;;;15.30;99.90;;;;;;4905751;29;20043;-69
2021/04/25 11:29:12;;;;;;;14.45;4.82;;;15.30;99.90;;;;;;4913884;29;20044;-69
2021/04/25 11:31:57;;;;;;;12.48;4.72;;;15.40;99.90;;;;;;4915257;29;20036;-69
2021/04/25 11:34:27;;;;;;;9.65;3.90;;;15.40;99.90;;;;;;4912504;29;20405;-68
2021/04/25 11:37:08;;;;;;;13.85;5.55;;;15.40;99.90;;;;;;4911648;29;20039;-68
2021/04/25 11:39:40;;;;;;;13.63;5.60;;;15.40;99.90;;;;;;4910367;29;20393;-68
2021/04/25 11:42:09;;;;;;;11.25;4.82;;;15.40;99.90;;;;;;4910139;29;20045;-68
2021/04/25 11:44:39;;;;;;;10.50;5.57;;;15.40;99.90;;;;;;4912912;29;20043;-68
2021/04/25 11:47:14;;;;;;;15.48;6.65;;;15.40;99.90;;;;;;4910758;29;20034;-68
2021/04/25 11:49:47;;;;;;;13.20;5.28;;;15.40;99.90;;;;;;4914145;29;20450;-68
2021/04/25 11:52:17;;;;;;;12.52;6.18;;;15.40;99.90;;;;;;4913050;29;20132;-68
2021/04/25 11:54:47;;;;;;;12.57;6.10;;;15.40;99.90;;;;;;4898770;29;20040;-68
2021/04/25 11:57:21;;;;;;;14.43;5.97;;;15.50;99.90;;;;;;4911739;29;20035;-68
2021/04/25 12:00:00;;;;;;;15.23;5.73;;;15.50;99.90;;;;;;4915364;29;20516;-68
2021/04/25 12:02:32;;;;;;;12.10;4.82;;;15.40;99.90;;;;;;4913957;29;20039;-67
2021/04/25 12:05:08;;;;;;;14.00;5.63;;;15.30;99.90;;;;;;4915052;29;20087;-68
2021/04/25 12:07:44;;;;;;;14.40;6.18;;;15.30;99.90;;;;;;4911426;29;20132;-68
2021/04/25 12:10:20;;;;;;;11.27;6.15;;;15.30;99.90;;;;;;4915672;29;20048;-68
2021/04/25 12:13:05;;;;;;;13.25;5.25;;;15.20;99.90;;;;;;4913506;29;20052;-68
2021/04/25 12:16:02;;;;;;;10.18;5.40;;;15.20;99.90;;;;;;4915879;29;20059;-68
2021/04/25 12:18:32;;;;;;;12.75;5.90;;;15.40;99.90;;;;;;4892822;29;20113;-69
2021/04/25 12:21:03;;;;;;;13.63;6.00;;;15.40;99.90;;;;;;4911932;29;20120;-68
2021/04/25 12:23:42;;;;;;;16.27;6.20;;;15.20;99.90;;;;;;4908986;29;20036;-68
2021/04/25 12:26:11;;;;;;;19.63;6.50;;;15.10;99.90;;;;;;4911979;29;20040;-68
2021/04/25 12:28:44;;;;;;;12.68;6.15;;;15.10;99.90;;;;;;4913143;29;20043;-67
2021/04/25 12:31:19;;;;;;;12.15;5.90;;;15.20;99.90;;;;;;4912389;29;20047;-67
2021/04/25 12:33:56;;;;;;;13.02;5.60;;;15.30;99.90;;;;;;4912330;29;20040;-67
2021/04/25 12:36:29;;;;;;;11.70;6.00;;;15.30;99.90;;;;;;4898421;29;20409;-67
2021/04/25 12:39:03;;;;;;;11.10;5.97;;;15.30;99.90;;;;;;4913781;29;20028;-67
2021/04/25 12:41:44;;;;;;;12.07;5.40;;;15.40;99.90;;;;;;4915269;29;20040;-67
2021/04/25 12:44:17;;;;;;;12.02;5.30;;;15.40;99.90;;;;;;4915177;29;20036;-67
2021/04/25 12:46:56;;;;;;;11.93;6.10;;;15.40;99.90;;;;;;4915028;29;20119;-67
2021/04/25 12:49:38;;;;;;;11.82;5.60;;;15.50;99.90;;;;;;4905847;29;20040;-67
2021/04/25 12:52:07;;;;;;;13.48;5.53;;;15.40;99.90;;;;;;4916976;29;20044;-67
2021/04/25 12:54:45;;;;;;;12.75;5.15;;;15.40;99.90;;;;;;4917047;29;20039;-66
2021/04/25 12:57:13;;;;;;;12.68;5.00;;;15.50;99.90;;;;;;4914947;29;20040;-67
2021/04/25 12:59:41;;;;;;;17.02;5.85;;;15.50;99.90;;;;;;4918510;29;20036;-67
2021/04/25 13:02:12;;;;;;;11.52;5.72;;;15.60;99.90;;;;;;4916773;29;20040;-67
2021/04/25 13:04:52;;;;;;;12.70;5.60;;;15.40;99.90;;;;;;4918164;29;20060;-67
2021/04/25 13:07:44;;;;;;;12.80;5.22;;;15.40;99.90;;;;;;4916230;29;20067;-67